Pagina principale
METAR-TAF:

METAR-TAF

Aeroporti :

Milano, Italia

Aeroporto di Milano-Malpensa

latitudine: 45-37N, longitudine: 008-44E, altezza: 234 m

Osservazione

Il bollettino è stato emesso 31 minuti fa, alle 00:20 UTC
Vento 6 kt da nord-est, variando fra nord e est
Temperature 19°C
Umidità 34%
Pressione 1010 hPa
Visibilità 10 km o più
nessuna nube inferiore a 1500 m e nessun cumulonembo

METAR: LIMC 270020Z 04006KT 360V080 CAVOK 19/03 Q1010 NOSIG

Ora: 02:51 (00:51 UTC)

Previsione

Il bollettino è stato emesso 1 ora e 51 minuti fa, alle 23:00 UTC
Previsione valida dal 27 alle 00 UTC al 28 alle 06 UTC
Vento 5 kt da nord/nord-est
Visibilità 10 km o più
nessuna nube inferiore a 1500 m e nessun cumulonembo

TAF: LIMC 262300Z 2700/2806 02005KT CAVOK

Osservazioni e previsioni meteorologiche di più di 4000 aeroporti (messaggi METAR e TAF).

Le stazioni disponibili sono rappresentate dai dischi gialli e rossi sulla carta.

Puntare il mouse per vedere il nome della stazione.

Clicca sopra per visualizzare le osservazioni e previsioni meteorologiche.

Per cambiare la mappa : fare clic sui pulsanti verdi con una croce nera per ingrandire, il pulsante verde con un trattino per diminuire, o sulla freccia verde per le mappe adiacenti.


METAR-TAF: